createdAt,value
2019-05-30T00:01:05.979Z,2.83
2019-05-30T00:03:56.037Z,2.53
2019-05-30T00:09:45.232Z,3.00
2019-05-30T00:12:35.032Z,2.50
2019-05-30T00:15:24.971Z,2.67
2019-05-30T00:18:14.790Z,2.73
2019-05-30T00:20:45.238Z,3.00
2019-05-30T00:23:34.985Z,2.60
2019-05-30T00:26:24.787Z,3.10
2019-05-30T00:29:14.600Z,2.87
2019-05-30T00:32:05.029Z,2.90
2019-05-30T00:34:55.901Z,2.63
2019-05-30T00:37:45.680Z,3.10
2019-05-30T00:40:35.501Z,2.70
2019-05-30T00:43:25.267Z,3.67
2019-05-30T00:46:15.107Z,4.03
2019-05-30T00:49:06.510Z,3.53
2019-05-30T00:51:56.718Z,3.63
2019-05-30T00:54:27.166Z,3.67
2019-05-30T00:57:16.933Z,4.17
2019-05-30T01:00:07.425Z,3.20
2019-05-30T01:02:59.889Z,3.53
2019-05-30T01:05:40.681Z,3.40
2019-05-30T01:08:30.487Z,3.20
2019-05-30T01:11:20.344Z,4.03
2019-05-30T01:14:10.134Z,3.53
2019-05-30T01:17:01.047Z,3.53
2019-05-30T01:19:43.286Z,3.60
2019-05-30T01:22:33.121Z,3.60
2019-05-30T01:25:22.895Z,3.83
2019-05-30T01:28:12.692Z,4.37
2019-05-30T01:31:05.544Z,3.80
2019-05-30T01:33:40.100Z,3.07
2019-05-30T01:36:29.878Z,3.90
2019-05-30T01:39:19.670Z,4.00
2019-05-30T01:42:09.468Z,3.70
2019-05-30T01:45:00.197Z,3.10
2019-05-30T01:47:42.729Z,3.67
2019-05-30T01:50:32.549Z,3.37
2019-05-30T01:53:22.325Z,2.93
2019-05-30T01:56:12.095Z,3.23
2019-05-30T01:59:02.672Z,3.40
2019-05-30T02:01:39.394Z,3.43
2019-05-30T02:04:29.175Z,5.43
2019-05-30T02:07:18.973Z,3.13
2019-05-30T02:13:12.544Z,3.13
2019-05-30T02:16:03.644Z,3.60
2019-05-30T02:18:45.284Z,2.93
2019-05-30T02:21:35.071Z,2.60
2019-05-30T02:24:24.834Z,2.60
2019-05-30T02:27:14.622Z,3.40
2019-05-30T02:30:06.633Z,2.70
2019-05-30T02:32:47.691Z,2.90
2019-05-30T02:35:37.484Z,2.87
2019-05-30T02:38:27.225Z,3.00
2019-05-30T02:40:57.781Z,2.60
2019-05-30T02:46:37.643Z,3.13
2019-05-30T02:49:27.462Z,2.20
2019-05-30T02:52:17.256Z,2.63
2019-05-30T02:55:09.139Z,2.50
2019-05-30T02:57:50.463Z,2.67
2019-05-30T03:03:24.706Z,2.43
2019-05-30T03:06:14.706Z,3.17
2019-05-30T03:11:51.025Z,3.07
2019-05-30T03:14:40.808Z,2.53
2019-05-30T03:17:30.600Z,2.70
2019-05-30T03:20:23.264Z,3.13
2019-05-30T03:23:05.297Z,3.17
2019-05-30T03:25:40.903Z,3.17
2019-05-30T03:28:30.693Z,2.67
2019-05-30T03:34:44.817Z,3.30
2019-05-30T03:37:34.617Z,2.93
2019-05-30T03:40:25.733Z,3.17
2019-05-30T03:43:03.856Z,2.70
2019-05-30T04:16:34.250Z,2.40
2019-05-30T04:19:24.052Z,3.60
2019-05-30T04:22:15.355Z,3.03
2019-05-30T04:24:56.693Z,3.07
2019-05-30T04:27:27.148Z,2.80
2019-05-30T04:30:18.540Z,3.90
2019-05-30T04:33:17.164Z,3.20
2019-05-30T04:35:43.728Z,3.07
2019-05-30T04:38:33.510Z,3.37
2019-05-30T04:41:23.268Z,3.33
2019-05-30T04:44:14.484Z,3.03
2019-05-30T04:47:04.576Z,3.30
2019-05-30T04:49:54.354Z,3.07
2019-05-30T04:52:44.101Z,3.07
2019-05-30T04:55:33.893Z,3.07
2019-05-30T04:58:04.324Z,3.13
2019-05-30T05:00:54.106Z,3.17
2019-05-30T05:03:46.149Z,2.73
2019-05-30T05:06:26.627Z,3.50
2019-05-30T05:09:17.990Z,3.20
2019-05-30T05:11:59.227Z,3.20
2019-05-30T05:14:49.004Z,2.87
2019-05-30T05:17:38.837Z,3.47
2019-05-30T05:20:28.588Z,3.43
2019-05-30T05:23:04.704Z,3.20
2019-05-30T05:26:00.891Z,3.70
2019-05-30T05:28:32.084Z,3.53
2019-05-30T05:31:22.457Z,3.23
2019-05-30T05:34:04.796Z,3.47
2019-05-30T05:36:54.586Z,2.73
2019-05-30T05:39:44.378Z,2.37
2019-05-30T05:42:34.158Z,2.90
2019-05-30T05:45:24.693Z,2.80
2019-05-30T05:48:06.866Z,3.23
2019-05-30T05:50:56.660Z,3.20
2019-05-30T05:53:27.144Z,2.50
2019-05-30T05:55:57.526Z,3.17
2019-05-30T05:58:29.250Z,3.10
2019-05-30T06:01:06.138Z,2.90
2019-05-30T06:03:36.622Z,2.83
2019-05-30T06:06:27.385Z,2.90
2019-05-30T06:09:09.360Z,3.27
2019-05-30T06:11:59.158Z,2.83
2019-05-30T06:14:29.578Z,2.53
2019-05-30T06:17:19.376Z,3.30
2019-05-30T06:20:09.325Z,2.70
2019-05-30T06:22:39.769Z,2.40
2019-05-30T06:25:32.474Z,2.80
2019-05-30T06:28:12.521Z,2.67
2019-05-30T06:31:02.295Z,2.90
2019-05-30T06:33:52.101Z,2.60
2019-05-30T06:36:41.883Z,2.67
2019-05-30T06:39:31.706Z,2.70
2019-05-30T06:42:21.719Z,2.40
2019-05-30T06:44:59.056Z,2.70
2019-05-30T06:47:48.864Z,2.90
2019-05-30T06:50:39.017Z,3.00
2019-05-30T06:53:29.348Z,2.23
2019-05-30T06:56:13.240Z,2.70
2019-05-30T06:59:03.084Z,2.40
2019-05-30T07:01:52.871Z,3.40
2019-05-30T07:04:51.425Z,2.13
2019-05-30T07:07:34.294Z,2.60
2019-05-30T07:10:11.863Z,2.60
2019-05-30T07:13:01.687Z,2.90
2019-05-30T07:15:34.261Z,2.57
2019-05-30T07:18:23.642Z,2.30
2019-05-30T07:21:13.416Z,3.30
2019-05-30T07:24:23.737Z,2.97
2019-05-30T07:27:05.752Z,2.60
2019-05-30T07:29:36.151Z,2.20
2019-05-30T07:38:01.918Z,2.57
2019-05-30T07:40:51.776Z,2.63
2019-05-30T07:43:24.890Z,2.43
2019-05-30T07:46:13.796Z,2.50
2019-05-30T07:49:03.568Z,2.40
2019-05-30T07:51:53.343Z,2.70
2019-05-30T07:54:43.154Z,2.77
2019-05-30T07:57:33.267Z,3.37
2019-05-30T08:00:57.433Z,2.63
2019-05-30T08:03:47.217Z,2.83
2019-05-30T08:06:37.909Z,2.47
2019-05-30T08:09:20.315Z,2.70
2019-05-30T08:12:10.131Z,2.50
2019-05-30T08:14:59.883Z,3.17
2019-05-30T08:17:49.687Z,2.63
2019-05-30T08:20:39.419Z,2.90
2019-05-30T08:23:30.091Z,2.63
2019-05-30T08:26:20.680Z,3.03
2019-05-30T08:29:10.497Z,2.50
2019-05-30T08:32:00.281Z,2.83
2019-05-30T08:34:50.054Z,2.77
2019-05-30T08:37:39.831Z,2.43
2019-05-30T08:40:29.588Z,2.93
2019-05-30T08:43:19.478Z,2.70
2019-05-30T08:46:09.275Z,2.97
2019-05-30T08:49:01.697Z,2.80
2019-05-30T08:51:42.448Z,2.67
2019-05-30T08:54:32.305Z,2.87
2019-05-30T08:57:22.088Z,2.87
2019-05-30T08:59:52.530Z,2.90
2019-05-30T09:02:42.917Z,2.73
2019-05-30T09:05:27.849Z,2.70
2019-05-30T09:08:17.642Z,2.20
2019-05-30T09:11:07.416Z,2.27
2019-05-30T09:13:38.882Z,2.40
2019-05-30T09:16:23.103Z,3.20
2019-05-30T09:19:12.891Z,3.10
2019-05-30T09:22:15.700Z,4.17
2019-05-30T09:24:46.683Z,3.20
2019-05-30T09:27:29.871Z,3.23
2019-05-30T09:33:23.618Z,2.60
2019-05-30T09:36:14.088Z,2.30
2019-05-30T09:38:56.484Z,2.53
2019-05-30T09:41:46.278Z,2.60
2019-05-30T09:44:50.443Z,2.70
2019-05-30T09:47:24.220Z,2.50
2019-05-30T09:53:20.282Z,2.80
2019-05-30T09:56:10.060Z,2.30
2019-05-30T09:58:59.931Z,2.70
2019-05-30T10:01:50.147Z,2.30
2019-05-30T10:04:32.716Z,2.20
2019-05-30T10:07:22.550Z,2.47
2019-05-30T10:10:12.634Z,2.67
2019-05-30T10:13:02.430Z,2.53
2019-05-30T10:15:52.563Z,2.70
2019-05-30T10:18:36.302Z,2.50
2019-05-30T10:21:26.094Z,2.43
2019-05-30T10:24:15.916Z,2.20
2019-05-30T10:27:05.728Z,2.60
2019-05-30T10:29:55.524Z,2.10
2019-05-30T10:32:46.750Z,2.37
2019-05-30T10:35:30.107Z,2.20
2019-05-30T10:38:12.628Z,2.60
2019-05-30T10:41:02.483Z,2.23
2019-05-30T10:43:53.151Z,2.00
2019-05-30T10:46:34.831Z,2.20
2019-05-30T10:49:34.410Z,2.07
2019-05-30T10:52:09.858Z,1.97
2019-05-30T10:54:59.630Z,2.50
2019-05-30T10:57:50.061Z,1.90
2019-05-30T11:00:53.638Z,2.30
2019-05-30T11:03:35.201Z,1.97
2019-05-30T11:12:37.070Z,1.93
2019-05-30T11:15:26.826Z,2.20
2019-05-30T11:18:16.669Z,2.27
2019-05-30T11:21:06.497Z,2.40
2019-05-30T11:23:56.763Z,2.60
2019-05-30T11:26:39.161Z,1.77
2019-05-30T11:29:29.011Z,2.00
2019-05-30T11:32:18.738Z,3.20
2019-05-30T11:35:08.652Z,2.47
2019-05-30T11:37:59.267Z,2.67
2019-05-30T11:40:43.206Z,2.63
2019-05-30T11:43:33.063Z,2.60
2019-05-30T11:46:22.863Z,2.63
2019-05-30T11:49:12.669Z,2.10
2019-05-30T11:51:43.135Z,2.67
2019-05-30T11:54:33.044Z,2.13
2019-05-30T11:57:22.872Z,2.37
2019-05-30T12:03:14.476Z,2.20
2019-05-30T12:06:04.265Z,2.50
2019-05-30T12:08:54.738Z,2.33
2019-05-30T12:11:36.667Z,2.10
2019-05-30T12:14:26.496Z,2.30
2019-05-30T12:17:16.273Z,2.27
2019-05-30T12:23:11.415Z,2.40
2019-05-30T12:26:02.291Z,2.37
2019-05-30T12:28:45.699Z,2.90
2019-05-30T12:31:35.619Z,2.80
2019-05-30T12:34:25.430Z,3.67
2019-05-30T12:37:15.248Z,3.20
2019-05-30T12:43:09.376Z,3.07
2019-05-30T12:45:59.197Z,3.47
2019-05-30T12:48:48.970Z,3.57
2019-05-30T12:51:38.764Z,3.43
2019-05-30T12:54:28.566Z,3.63
2019-05-30T12:57:18.297Z,3.80
2019-05-30T13:02:52.543Z,4.20
2019-05-30T13:05:42.378Z,3.90
2019-05-30T13:08:32.248Z,4.10
2019-05-30T13:11:22.052Z,4.40
2019-05-30T13:14:11.909Z,3.70
2019-05-30T13:17:01.909Z,4.00
2019-05-30T13:19:32.299Z,4.10
2019-05-30T13:22:22.131Z,3.50
2019-05-30T13:24:52.565Z,3.73
2019-05-30T13:27:42.418Z,3.10
2019-05-30T13:30:32.293Z,4.47
2019-05-30T13:33:22.101Z,4.13
2019-05-30T13:36:11.872Z,4.17
2019-05-30T13:39:01.655Z,3.60
2019-05-30T13:41:51.501Z,3.23
2019-05-30T13:44:41.321Z,3.07
2019-05-30T13:47:31.111Z,3.70
2019-05-30T13:53:05.353Z,3.43
2019-05-30T13:55:56.400Z,3.23
2019-05-30T13:58:26.801Z,3.63
2019-05-30T14:01:16.561Z,3.57
2019-05-30T14:04:06.443Z,3.57
2019-05-30T14:06:56.187Z,2.93
2019-05-30T14:09:45.992Z,4.00
2019-05-30T14:12:35.803Z,4.20
2019-05-30T14:15:25.707Z,3.80
2019-05-30T14:18:15.477Z,3.77
2019-05-30T14:21:05.314Z,4.20
2019-05-30T14:23:55.116Z,3.67
2019-05-30T14:26:44.910Z,3.60
2019-05-30T14:29:34.724Z,3.97
2019-05-30T14:32:24.541Z,3.70
2019-05-30T14:34:54.934Z,3.63
2019-05-30T14:37:44.737Z,3.60
2019-05-30T14:40:34.556Z,3.10
2019-05-30T14:43:05.270Z,3.87
2019-05-30T14:45:48.442Z,3.63
2019-05-30T14:48:38.231Z,3.20
2019-05-30T14:51:28.045Z,3.70
2019-05-30T14:54:17.847Z,3.77
2019-05-30T14:57:08.819Z,3.77
2019-05-30T14:59:50.535Z,3.40
2019-05-30T15:02:40.321Z,3.27
2019-05-30T15:05:30.193Z,2.70
2019-05-30T15:08:19.974Z,2.83
2019-05-30T15:11:09.732Z,3.03
2019-05-30T15:13:59.516Z,2.37
2019-05-30T15:16:49.301Z,3.07
2019-05-30T15:19:39.074Z,3.23
2019-05-30T15:22:28.837Z,2.80
2019-05-30T15:24:59.256Z,2.40
2019-05-30T15:27:49.044Z,3.17
2019-05-30T15:30:38.814Z,3.00
2019-05-30T15:33:28.601Z,2.97
2019-05-30T15:36:18.407Z,3.00
2019-05-30T15:39:09.012Z,3.03
2019-05-30T15:41:40.249Z,2.40
2019-05-30T15:44:30.042Z,2.83
2019-05-30T15:47:19.843Z,2.43
2019-05-30T15:53:13.092Z,2.60
2019-05-30T15:56:03.726Z,2.90
2019-05-30T15:58:53.536Z,3.30
2019-05-30T16:01:43.322Z,2.97
2019-05-30T16:04:33.123Z,3.30
2019-05-30T16:07:22.918Z,3.20
2019-05-30T16:10:12.994Z,3.03
2019-05-30T16:12:43.534Z,3.37
2019-05-30T16:15:33.344Z,2.83
2019-05-30T16:18:23.126Z,3.10
2019-05-30T16:20:53.532Z,2.83
2019-05-30T16:23:43.312Z,2.80
2019-05-30T16:26:33.124Z,2.80
2019-05-30T16:29:22.893Z,3.20
2019-05-30T16:32:13.806Z,2.93
2019-05-30T16:35:04.282Z,3.00
2019-05-30T16:37:54.083Z,3.27
2019-05-30T16:40:24.459Z,3.53
2019-05-30T16:43:14.301Z,3.17
2019-05-30T16:46:04.087Z,3.50
2019-05-30T16:48:34.649Z,3.40
2019-05-30T16:51:24.472Z,3.63
2019-05-30T16:54:15.136Z,3.13
2019-05-30T16:57:05.745Z,4.73
2019-05-30T16:59:55.536Z,5.63
2019-05-30T17:02:45.334Z,8.07
2019-05-30T17:05:35.157Z,7.80
2019-05-30T17:08:26.265Z,5.27
2019-05-30T17:11:10.082Z,4.10
2019-05-30T17:13:59.902Z,3.80
2019-05-30T17:16:49.753Z,3.57
2019-05-30T17:19:39.840Z,3.50
2019-05-30T17:22:17.092Z,3.33
2019-05-30T17:25:07.210Z,4.10
2019-05-30T17:27:37.762Z,3.43
2019-05-30T17:30:27.771Z,3.70
2019-05-30T17:33:20.070Z,3.10
2019-05-30T17:36:09.165Z,3.60
2019-05-30T17:38:58.946Z,3.57
2019-05-30T17:41:48.749Z,3.80
2019-05-30T17:44:38.564Z,3.67
2019-05-30T17:47:29.465Z,3.17
2019-05-30T17:50:50.755Z,3.63
2019-05-30T17:53:40.580Z,4.00
2019-05-30T17:56:30.433Z,3.97
2019-05-30T17:59:20.273Z,3.03
2019-05-30T18:02:10.436Z,3.33
2019-05-30T18:04:41.261Z,3.67
2019-05-30T18:07:31.229Z,4.30
2019-05-30T18:10:21.133Z,3.87
2019-05-30T18:13:11.002Z,4.80
2019-05-30T18:16:00.864Z,3.90
2019-05-30T18:18:50.698Z,4.13
2019-05-30T18:21:41.448Z,3.97
2019-05-30T18:24:31.791Z,4.67
2019-05-30T18:27:08.855Z,3.97
2019-05-30T18:29:58.660Z,3.50
2019-05-30T18:32:30.233Z,3.67
2019-05-30T18:35:20.554Z,4.70
2019-05-30T18:38:10.392Z,4.43
2019-05-30T18:41:11.091Z,4.40
2019-05-30T18:43:42.770Z,4.80
2019-05-30T18:46:33.357Z,4.57
2019-05-30T18:49:17.072Z,4.40
2019-05-30T18:52:06.881Z,4.37
2019-05-30T18:54:56.770Z,4.67
2019-05-30T18:57:27.261Z,4.87
2019-05-30T19:00:18.474Z,5.03
2019-05-30T19:02:54.825Z,5.97
2019-05-30T19:05:44.681Z,4.00
2019-05-30T19:08:34.539Z,4.77
2019-05-30T19:11:27.972Z,4.10
2019-05-30T19:14:07.928Z,4.23
2019-05-30T19:16:57.767Z,3.90
2019-05-30T19:19:51.098Z,4.80
2019-05-30T19:28:01.643Z,5.20
2019-05-30T19:30:51.497Z,4.37
2019-05-30T19:33:41.378Z,5.03
2019-05-30T19:36:31.208Z,5.43
2019-05-30T19:39:21.427Z,4.60
2019-05-30T19:42:11.258Z,4.97
2019-05-30T19:45:01.178Z,4.50
2019-05-30T19:47:51.027Z,4.60
2019-05-30T19:50:40.917Z,5.00
2019-05-30T19:53:30.904Z,4.60
2019-05-30T19:56:01.551Z,4.90
2019-05-30T19:58:51.302Z,5.12
2019-05-30T20:01:41.125Z,5.43
2019-05-30T20:04:32.146Z,5.07
2019-05-30T20:07:08.600Z,5.17
2019-05-30T20:10:01.774Z,4.83
2019-05-30T20:12:41.871Z,4.60
2019-05-30T20:15:31.688Z,4.80
2019-05-30T20:18:21.539Z,4.67
2019-05-30T20:21:11.341Z,5.30
2019-05-30T20:24:01.164Z,4.60
2019-05-30T20:26:32.400Z,4.77
2019-05-30T20:29:23.241Z,4.90
2019-05-30T20:32:13.059Z,4.73
2019-05-30T20:35:02.939Z,5.17
2019-05-30T20:37:52.767Z,4.30
2019-05-30T20:40:43.037Z,4.63
2019-05-30T20:43:20.176Z,4.77
2019-05-30T20:49:14.649Z,5.20
2019-05-30T20:52:04.438Z,4.77
2019-05-30T20:54:35.276Z,5.80
2019-05-30T20:57:46.709Z,5.63
2019-05-30T21:00:56.218Z,6.00
2019-05-30T21:03:46.002Z,5.70
2019-05-30T21:06:36.670Z,5.40
2019-05-30T21:09:27.865Z,6.13
2019-05-30T21:21:08.979Z,6.27
2019-05-30T21:23:58.792Z,5.90
2019-05-30T21:26:31.249Z,6.07
2019-05-30T21:32:26.725Z,6.07
2019-05-30T21:35:16.783Z,4.97
2019-05-30T21:38:06.667Z,5.20
2019-05-30T21:40:56.447Z,5.20
2019-05-30T21:43:46.836Z,4.33
2019-05-30T21:46:29.108Z,4.80
2019-05-30T21:49:18.908Z,4.50
2019-05-30T21:52:08.699Z,4.10
2019-05-30T21:54:58.532Z,4.63
2019-05-30T21:57:28.988Z,4.27
2019-05-30T22:03:25.018Z,3.77
2019-05-30T22:06:14.859Z,4.10
2019-05-30T22:12:08.997Z,2.90
2019-05-30T22:15:17.789Z,3.47
2019-05-30T22:18:07.654Z,3.40
2019-05-30T22:24:26.638Z,3.50
2019-05-30T22:27:16.423Z,3.20
2019-05-30T22:30:06.749Z,3.07
2019-05-30T22:32:56.628Z,3.07
2019-05-30T22:35:46.786Z,2.77
2019-05-30T22:38:27.050Z,2.50
2019-05-30T22:41:16.822Z,2.70
2019-05-30T22:46:50.315Z,2.30
2019-05-30T22:49:40.075Z,3.03
2019-05-30T22:52:29.854Z,2.93
2019-05-30T22:55:21.473Z,2.80
2019-05-30T22:57:57.880Z,2.90
2019-05-30T23:00:46.161Z,3.40
2019-05-30T23:03:18.113Z,2.57
2019-05-30T23:06:07.964Z,3.17
2019-05-30T23:08:57.799Z,2.90
2019-05-30T23:11:47.743Z,2.90
2019-05-30T23:14:18.431Z,3.20
2019-05-30T23:17:08.268Z,2.73
2019-05-30T23:19:58.136Z,2.87
2019-05-30T23:22:28.634Z,3.00
2019-05-30T23:25:18.438Z,2.80
2019-05-30T23:28:08.195Z,2.50
2019-05-30T23:30:38.610Z,2.47
2019-05-30T23:33:28.386Z,2.37
2019-05-30T23:36:18.244Z,2.40
2019-05-30T23:39:08.210Z,2.20
2019-05-30T23:41:59.239Z,2.20
2019-05-30T23:44:49.486Z,2.53
2019-05-30T23:47:39.301Z,2.50
2019-05-30T23:50:29.083Z,1.97
2019-05-30T23:53:18.881Z,2.57
2019-05-30T23:56:08.656Z,2.37
2019-05-30T23:58:58.901Z,2.00
